KDOV/DOV METAR and TAF weather

Enter ICAO airport designator
Station Type Date Time Source
KDOV METAR 2019/06/26 21:56 UTC NOAA

KDOV 262156Z AUTO 28006KT 10SM CLR 31/17 A3002 RMK AO2 SLP169 T03120171 $


Station Type Date Time Source
KDOV Decoded METAR 2019/06/26 21:56 UTC NOAA

Dover Air Force Base, DE, United States (KDOV) 39-08N 075-28W
Jun 26, 2019 - 05:56 PM EDT / 2019.06.26 2156 UTC
Wind: from the W (280 degrees) at 7 MPH (6 KT):0
Visibility: 10 mile(s):0
Sky conditions: clear
Temperature: 88.2 F (31.2 C)
Dew Point: 62.8 F (17.1 C)
Relative Humidity: 42%
Pressure (altimeter): 30.02 in. Hg (1016 hPa)
ob: KDOV 262156Z AUTO 28006KT 10SM CLR 31/17 A3002 RMK AO2 SLP169 T03120171
cycle: 22

Station Type Date Time Source
KDOV TAF 2019/06/26 16:12 UTC NOAA

TAF KDOV 261600Z 2616/2722 29006KT 9999 FEW050 QNH3001INS WND 26009KT AFT 2700
BECMG 2708/2709 32006KT 9999 FEW050 QNH3005INS TX32/2620Z TN22/2708Z

Example: see airport list